sensor_id;sensor_type;location;lat;lon;timestamp;P1;durP1;ratioP1;P2;durP2;ratioP2
39728;SDS011;25402;42.004;23.088;2023-01-24T00:02:21;10.18;;;6.50;;
39728;SDS011;25402;42.004;23.088;2023-01-24T00:04:48;10.43;;;6.55;;
39728;SDS011;25402;42.004;23.088;2023-01-24T00:07:16;11.65;;;6.65;;
39728;SDS011;25402;42.004;23.088;2023-01-24T00:09:42;11.77;;;6.80;;
39728;SDS011;25402;42.004;23.088;2023-01-24T00:12:09;15.55;;;6.70;;
39728;SDS011;25402;42.004;23.088;2023-01-24T00:14:36;10.15;;;5.90;;
39728;SDS011;25402;42.004;23.088;2023-01-24T00:17:02;10.85;;;6.35;;
39728;SDS011;25402;42.004;23.088;2023-01-24T00:19:29;10.95;;;6.55;;
39728;SDS011;25402;42.004;23.088;2023-01-24T00:21:56;14.05;;;6.85;;
39728;SDS011;25402;42.004;23.088;2023-01-24T00:24:24;15.18;;;7.25;;
39728;SDS011;25402;42.004;23.088;2023-01-24T00:26:51;11.95;;;6.57;;
39728;SDS011;25402;42.004;23.088;2023-01-24T00:29:18;11.18;;;6.63;;
39728;SDS011;25402;42.004;23.088;2023-01-24T00:31:44;11.75;;;7.38;;
39728;SDS011;25402;42.004;23.088;2023-01-24T00:34:11;15.95;;;7.88;;
39728;SDS011;25402;42.004;23.088;2023-01-24T00:36:38;16.33;;;9.02;;
39728;SDS011;25402;42.004;23.088;2023-01-24T00:39:04;17.55;;;9.25;;
39728;SDS011;25402;42.004;23.088;2023-01-24T00:41:32;17.80;;;9.80;;
39728;SDS011;25402;42.004;23.088;2023-01-24T00:43:59;18.88;;;9.25;;
39728;SDS011;25402;42.004;23.088;2023-01-24T00:46:26;18.92;;;10.57;;
39728;SDS011;25402;42.004;23.088;2023-01-24T00:48:52;15.73;;;9.40;;
39728;SDS011;25402;42.004;23.088;2023-01-24T00:51:19;16.40;;;9.50;;
39728;SDS011;25402;42.004;23.088;2023-01-24T00:53:45;18.42;;;10.98;;
39728;SDS011;25402;42.004;23.088;2023-01-24T00:56:12;18.35;;;10.27;;
39728;SDS011;25402;42.004;23.088;2023-01-24T00:58:40;17.98;;;9.75;;
39728;SDS011;25402;42.004;23.088;2023-01-24T01:01:07;19.02;;;9.90;;
39728;SDS011;25402;42.004;23.088;2023-01-24T01:03:33;14.48;;;8.43;;
39728;SDS011;25402;42.004;23.088;2023-01-24T01:06:00;14.25;;;8.55;;
39728;SDS011;25402;42.004;23.088;2023-01-24T01:08:27;15.48;;;8.90;;
39728;SDS011;25402;42.004;23.088;2023-01-24T01:10:54;13.50;;;7.90;;
39728;SDS011;25402;42.004;23.088;2023-01-24T01:13:20;16.20;;;8.77;;
39728;SDS011;25402;42.004;23.088;2023-01-24T01:15:48;13.63;;;8.23;;
39728;SDS011;25402;42.004;23.088;2023-01-24T01:18:16;13.40;;;8.00;;
39728;SDS011;25402;42.004;23.088;2023-01-24T01:20:48;15.20;;;8.32;;
39728;SDS011;25402;42.004;23.088;2023-01-24T01:23:14;15.32;;;7.85;;
39728;SDS011;25402;42.004;23.088;2023-01-24T01:25:41;17.75;;;9.40;;
39728;SDS011;25402;42.004;23.088;2023-01-24T01:28:07;15.32;;;8.52;;
39728;SDS011;25402;42.004;23.088;2023-01-24T01:30:34;17.20;;;8.00;;
39728;SDS011;25402;42.004;23.088;2023-01-24T01:33:02;15.15;;;8.48;;
39728;SDS011;25402;42.004;23.088;2023-01-24T01:35:29;14.98;;;8.10;;
39728;SDS011;25402;42.004;23.088;2023-01-24T01:37:55;11.90;;;7.65;;
39728;SDS011;25402;42.004;23.088;2023-01-24T01:40:22;16.67;;;7.80;;
39728;SDS011;25402;42.004;23.088;2023-01-24T01:42:49;15.00;;;7.72;;
39728;SDS011;25402;42.004;23.088;2023-01-24T01:48:03;17.70;;;7.65;;
39728;SDS011;25402;42.004;23.088;2023-01-24T01:50:31;17.15;;;7.68;;
39728;SDS011;25402;42.004;23.088;2023-01-24T01:53:02;16.27;;;7.40;;
39728;SDS011;25402;42.004;23.088;2023-01-24T01:55:29;14.73;;;7.78;;
39728;SDS011;25402;42.004;23.088;2023-01-24T01:57:58;12.43;;;6.70;;
39728;SDS011;25402;42.004;23.088;2023-01-24T02:00:25;13.60;;;7.80;;
39728;SDS011;25402;42.004;23.088;2023-01-24T02:02:52;13.48;;;7.20;;
39728;SDS011;25402;42.004;23.088;2023-01-24T02:05:22;12.85;;;7.47;;
39728;SDS011;25402;42.004;23.088;2023-01-24T02:07:52;12.85;;;7.50;;
39728;SDS011;25402;42.004;23.088;2023-01-24T02:10:19;13.40;;;7.57;;
39728;SDS011;25402;42.004;23.088;2023-01-24T02:12:47;13.90;;;7.85;;
39728;SDS011;25402;42.004;23.088;2023-01-24T02:15:15;15.52;;;9.15;;
39728;SDS011;25402;42.004;23.088;2023-01-24T02:18:00;17.83;;;7.85;;
39728;SDS011;25402;42.004;23.088;2023-01-24T02:20:34;16.02;;;9.43;;
39728;SDS011;25402;42.004;23.088;2023-01-24T02:23:08;18.60;;;8.88;;
39728;SDS011;25402;42.004;23.088;2023-01-24T02:25:39;14.30;;;8.32;;
39728;SDS011;25402;42.004;23.088;2023-01-24T02:28:08;18.90;;;8.60;;
39728;SDS011;25402;42.004;23.088;2023-01-24T02:30:36;11.80;;;7.07;;
39728;SDS011;25402;42.004;23.088;2023-01-24T02:33:08;12.98;;;7.38;;
39728;SDS011;25402;42.004;23.088;2023-01-24T02:35:35;14.02;;;7.32;;
39728;SDS011;25402;42.004;23.088;2023-01-24T02:38:03;12.50;;;7.35;;
39728;SDS011;25402;42.004;23.088;2023-01-24T02:40:30;11.48;;;6.85;;
39728;SDS011;25402;42.004;23.088;2023-01-24T02:42:58;11.02;;;6.53;;
39728;SDS011;25402;42.004;23.088;2023-01-24T02:45:28;11.68;;;6.80;;
39728;SDS011;25402;42.004;23.088;2023-01-24T02:47:55;12.25;;;7.00;;
39728;SDS011;25402;42.004;23.088;2023-01-24T02:50:22;11.82;;;6.63;;
39728;SDS011;25402;42.004;23.088;2023-01-24T02:52:49;10.02;;;5.60;;
39728;SDS011;25402;42.004;23.088;2023-01-24T02:55:33;11.55;;;6.32;;
39728;SDS011;25402;42.004;23.088;2023-01-24T02:58:20;11.02;;;6.93;;
39728;SDS011;25402;42.004;23.088;2023-01-24T03:00:47;13.98;;;6.85;;
39728;SDS011;25402;42.004;23.088;2023-01-24T03:03:14;10.90;;;6.43;;
39728;SDS011;25402;42.004;23.088;2023-01-24T03:05:40;11.63;;;6.85;;
39728;SDS011;25402;42.004;23.088;2023-01-24T03:08:21;16.17;;;7.32;;
39728;SDS011;25402;42.004;23.088;2023-01-24T03:10:48;11.73;;;7.07;;
39728;SDS011;25402;42.004;23.088;2023-01-24T03:13:14;16.15;;;7.72;;
39728;SDS011;25402;42.004;23.088;2023-01-24T03:16:00;13.10;;;7.22;;
39728;SDS011;25402;42.004;23.088;2023-01-24T03:18:44;14.40;;;8.30;;
39728;SDS011;25402;42.004;23.088;2023-01-24T03:24:12;15.73;;;8.43;;
39728;SDS011;25402;42.004;23.088;2023-01-24T03:26:56;14.82;;;8.23;;
39728;SDS011;25402;42.004;23.088;2023-01-24T03:32:25;13.88;;;7.35;;
39728;SDS011;25402;42.004;23.088;2023-01-24T03:35:09;12.48;;;7.88;;
39728;SDS011;25402;42.004;23.088;2023-01-24T03:37:36;15.75;;;8.50;;
39728;SDS011;25402;42.004;23.088;2023-01-24T03:40:19;12.98;;;7.53;;
39728;SDS011;25402;42.004;23.088;2023-01-24T03:42:46;14.13;;;7.90;;
39728;SDS011;25402;42.004;23.088;2023-01-24T03:45:13;14.45;;;8.30;;
39728;SDS011;25402;42.004;23.088;2023-01-24T03:47:44;17.23;;;8.98;;
39728;SDS011;25402;42.004;23.088;2023-01-24T03:50:10;15.00;;;8.43;;
39728;SDS011;25402;42.004;23.088;2023-01-24T03:52:55;18.13;;;8.07;;
39728;SDS011;25402;42.004;23.088;2023-01-24T03:55:22;17.15;;;7.78;;
39728;SDS011;25402;42.004;23.088;2023-01-24T03:57:49;15.00;;;7.43;;
39728;SDS011;25402;42.004;23.088;2023-01-24T04:00:16;27.40;;;6.40;;
39728;SDS011;25402;42.004;23.088;2023-01-24T04:02:44;25.40;;;5.70;;
39728;SDS011;25402;42.004;23.088;2023-01-24T04:05:11;12.07;;;5.40;;
39728;SDS011;25402;42.004;23.088;2023-01-24T04:07:41;23.83;;;6.13;;
39728;SDS011;25402;42.004;23.088;2023-01-24T04:10:08;16.25;;;5.13;;
39728;SDS011;25402;42.004;23.088;2023-01-24T04:12:35;11.57;;;5.13;;
39728;SDS011;25402;42.004;23.088;2023-01-24T04:15:01;14.15;;;5.05;;
39728;SDS011;25402;42.004;23.088;2023-01-24T04:17:28;12.63;;;5.25;;
39728;SDS011;25402;42.004;23.088;2023-01-24T04:19:56;15.90;;;5.43;;
39728;SDS011;25402;42.004;23.088;2023-01-24T04:22:22;10.85;;;4.90;;
39728;SDS011;25402;42.004;23.088;2023-01-24T04:24:49;11.15;;;5.82;;
39728;SDS011;25402;42.004;23.088;2023-01-24T04:27:15;12.48;;;5.82;;
39728;SDS011;25402;42.004;23.088;2023-01-24T04:29:42;14.18;;;5.55;;
39728;SDS011;25402;42.004;23.088;2023-01-24T04:32:09;17.58;;;8.23;;
39728;SDS011;25402;42.004;23.088;2023-01-24T04:34:35;18.40;;;7.63;;
39728;SDS011;25402;42.004;23.088;2023-01-24T04:37:03;17.35;;;8.35;;
39728;SDS011;25402;42.004;23.088;2023-01-24T04:39:30;15.52;;;7.60;;
39728;SDS011;25402;42.004;23.088;2023-01-24T04:41:56;12.55;;;7.43;;
39728;SDS011;25402;42.004;23.088;2023-01-24T04:44:23;10.52;;;7.20;;
39728;SDS011;25402;42.004;23.088;2023-01-24T04:46:49;13.52;;;8.00;;
39728;SDS011;25402;42.004;23.088;2023-01-24T04:49:16;12.82;;;7.57;;
39728;SDS011;25402;42.004;23.088;2023-01-24T04:51:43;14.23;;;6.70;;
39728;SDS011;25402;42.004;23.088;2023-01-24T04:54:11;12.32;;;6.22;;
39728;SDS011;25402;42.004;23.088;2023-01-24T04:56:38;12.55;;;7.60;;
39728;SDS011;25402;42.004;23.088;2023-01-24T04:59:04;16.52;;;7.97;;
39728;SDS011;25402;42.004;23.088;2023-01-24T05:01:31;18.50;;;10.52;;
39728;SDS011;25402;42.004;23.088;2023-01-24T05:03:57;16.42;;;8.30;;
39728;SDS011;25402;42.004;23.088;2023-01-24T05:06:25;17.80;;;9.18;;
39728;SDS011;25402;42.004;23.088;2023-01-24T05:08:51;17.13;;;10.00;;
39728;SDS011;25402;42.004;23.088;2023-01-24T05:11:19;28.25;;;14.48;;
39728;SDS011;25402;42.004;23.088;2023-01-24T05:13:46;31.58;;;17.92;;
39728;SDS011;25402;42.004;23.088;2023-01-24T05:16:13;32.33;;;17.88;;
39728;SDS011;25402;42.004;23.088;2023-01-24T05:18:39;31.27;;;16.42;;
39728;SDS011;25402;42.004;23.088;2023-01-24T05:21:06;27.83;;;15.88;;
39728;SDS011;25402;42.004;23.088;2023-01-24T05:23:33;17.38;;;11.15;;
39728;SDS011;25402;42.004;23.088;2023-01-24T05:26:00;20.33;;;11.32;;
39728;SDS011;25402;42.004;23.088;2023-01-24T05:28:28;21.42;;;11.70;;
39728;SDS011;25402;42.004;23.088;2023-01-24T05:30:57;23.92;;;10.55;;
39728;SDS011;25402;42.004;23.088;2023-01-24T05:33:23;30.45;;;17.27;;
39728;SDS011;25402;42.004;23.088;2023-01-24T05:35:55;15.57;;;9.23;;
39728;SDS011;25402;42.004;23.088;2023-01-24T05:38:22;30.98;;;16.27;;
39728;SDS011;25402;42.004;23.088;2023-01-24T05:40:48;41.95;;;23.85;;
39728;SDS011;25402;42.004;23.088;2023-01-24T05:43:15;21.20;;;10.70;;
39728;SDS011;25402;42.004;23.088;2023-01-24T05:45:43;21.67;;;12.10;;
39728;SDS011;25402;42.004;23.088;2023-01-24T05:48:09;14.30;;;7.38;;
39728;SDS011;25402;42.004;23.088;2023-01-24T05:50:36;17.77;;;9.15;;
39728;SDS011;25402;42.004;23.088;2023-01-24T05:53:03;30.08;;;16.38;;
39728;SDS011;25402;42.004;23.088;2023-01-24T05:55:29;41.22;;;22.42;;
39728;SDS011;25402;42.004;23.088;2023-01-24T05:57:57;35.47;;;19.20;;
39728;SDS011;25402;42.004;23.088;2023-01-24T06:00:24;21.17;;;11.23;;
39728;SDS011;25402;42.004;23.088;2023-01-24T06:02:52;15.82;;;9.07;;
39728;SDS011;25402;42.004;23.088;2023-01-24T06:05:19;14.80;;;8.88;;
39728;SDS011;25402;42.004;23.088;2023-01-24T06:07:46;18.00;;;10.68;;
39728;SDS011;25402;42.004;23.088;2023-01-24T06:10:13;15.73;;;9.07;;
39728;SDS011;25402;42.004;23.088;2023-01-24T06:12:39;20.15;;;9.50;;
39728;SDS011;25402;42.004;23.088;2023-01-24T06:15:06;28.05;;;14.88;;
39728;SDS011;25402;42.004;23.088;2023-01-24T06:17:33;18.98;;;10.25;;
39728;SDS011;25402;42.004;23.088;2023-01-24T06:20:02;20.10;;;9.95;;
39728;SDS011;25402;42.004;23.088;2023-01-24T06:22:30;13.02;;;7.97;;
39728;SDS011;25402;42.004;23.088;2023-01-24T06:25:01;19.50;;;11.43;;
39728;SDS011;25402;42.004;23.088;2023-01-24T06:27:27;24.42;;;14.85;;
39728;SDS011;25402;42.004;23.088;2023-01-24T06:29:54;23.25;;;11.10;;
39728;SDS011;25402;42.004;23.088;2023-01-24T06:32:25;16.65;;;9.25;;
39728;SDS011;25402;42.004;23.088;2023-01-24T06:35:14;15.15;;;8.60;;
39728;SDS011;25402;42.004;23.088;2023-01-24T06:37:44;12.32;;;7.63;;
39728;SDS011;25402;42.004;23.088;2023-01-24T06:40:12;21.13;;;10.95;;
39728;SDS011;25402;42.004;23.088;2023-01-24T06:42:39;14.95;;;8.50;;
39728;SDS011;25402;42.004;23.088;2023-01-24T06:45:06;17.00;;;9.90;;
39728;SDS011;25402;42.004;23.088;2023-01-24T06:47:33;13.77;;;7.95;;
39728;SDS011;25402;42.004;23.088;2023-01-24T06:50:02;10.98;;;6.57;;
39728;SDS011;25402;42.004;23.088;2023-01-24T06:52:31;12.13;;;7.18;;
39728;SDS011;25402;42.004;23.088;2023-01-24T06:54:58;14.02;;;6.60;;
39728;SDS011;25402;42.004;23.088;2023-01-24T06:57:24;13.95;;;8.05;;
39728;SDS011;25402;42.004;23.088;2023-01-24T06:59:51;16.30;;;7.25;;
39728;SDS011;25402;42.004;23.088;2023-01-24T07:02:19;12.57;;;7.50;;
39728;SDS011;25402;42.004;23.088;2023-01-24T07:04:45;16.92;;;8.98;;
39728;SDS011;25402;42.004;23.088;2023-01-24T07:07:12;17.92;;;9.10;;
39728;SDS011;25402;42.004;23.088;2023-01-24T07:09:40;26.63;;;14.30;;
39728;SDS011;25402;42.004;23.088;2023-01-24T07:12:06;19.70;;;10.88;;
39728;SDS011;25402;42.004;23.088;2023-01-24T07:14:33;20.02;;;11.35;;
39728;SDS011;25402;42.004;23.088;2023-01-24T07:17:00;11.13;;;6.43;;
39728;SDS011;25402;42.004;23.088;2023-01-24T07:19:27;14.05;;;7.00;;
39728;SDS011;25402;42.004;23.088;2023-01-24T07:21:54;12.43;;;7.43;;
39728;SDS011;25402;42.004;23.088;2023-01-24T07:24:22;16.00;;;9.55;;
39728;SDS011;25402;42.004;23.088;2023-01-24T07:26:52;15.93;;;8.10;;
39728;SDS011;25402;42.004;23.088;2023-01-24T07:29:19;12.18;;;6.80;;
39728;SDS011;25402;42.004;23.088;2023-01-24T07:31:45;13.65;;;7.63;;
39728;SDS011;25402;42.004;23.088;2023-01-24T07:34:13;13.80;;;7.32;;
39728;SDS011;25402;42.004;23.088;2023-01-24T07:36:40;13.45;;;7.40;;
39728;SDS011;25402;42.004;23.088;2023-01-24T07:39:07;14.48;;;7.97;;
39728;SDS011;25402;42.004;23.088;2023-01-24T07:41:34;14.57;;;8.38;;
39728;SDS011;25402;42.004;23.088;2023-01-24T07:44:02;13.05;;;7.28;;
39728;SDS011;25402;42.004;23.088;2023-01-24T07:46:31;13.27;;;7.18;;
39728;SDS011;25402;42.004;23.088;2023-01-24T07:48:57;62.45;;;27.88;;
39728;SDS011;25402;42.004;23.088;2023-01-24T07:51:24;8.48;;;5.60;;
39728;SDS011;25402;42.004;23.088;2023-01-24T07:53:51;11.00;;;6.18;;
39728;SDS011;25402;42.004;23.088;2023-01-24T07:56:17;14.02;;;7.82;;
39728;SDS011;25402;42.004;23.088;2023-01-24T07:58:45;13.82;;;8.05;;
39728;SDS011;25402;42.004;23.088;2023-01-24T08:01:16;11.05;;;6.90;;
39728;SDS011;25402;42.004;23.088;2023-01-24T08:03:44;24.65;;;12.30;;
39728;SDS011;25402;42.004;23.088;2023-01-24T08:06:11;12.73;;;6.75;;
39728;SDS011;25402;42.004;23.088;2023-01-24T08:08:37;10.35;;;5.75;;
39728;SDS011;25402;42.004;23.088;2023-01-24T08:11:04;22.27;;;11.07;;
39728;SDS011;25402;42.004;23.088;2023-01-24T08:13:31;15.45;;;7.57;;
39728;SDS011;25402;42.004;23.088;2023-01-24T08:15:58;9.55;;;5.30;;
39728;SDS011;25402;42.004;23.088;2023-01-24T08:18:27;12.38;;;6.95;;
39728;SDS011;25402;42.004;23.088;2023-01-24T08:20:54;15.95;;;8.13;;
39728;SDS011;25402;42.004;23.088;2023-01-24T08:23:21;10.15;;;6.50;;
39728;SDS011;25402;42.004;23.088;2023-01-24T08:25:48;11.32;;;6.00;;
39728;SDS011;25402;42.004;23.088;2023-01-24T08:28:14;13.98;;;6.30;;
39728;SDS011;25402;42.004;23.088;2023-01-24T08:30:41;11.68;;;6.93;;
39728;SDS011;25402;42.004;23.088;2023-01-24T08:33:08;12.40;;;6.80;;
39728;SDS011;25402;42.004;23.088;2023-01-24T08:35:37;13.77;;;7.10;;
39728;SDS011;25402;42.004;23.088;2023-01-24T08:38:04;9.23;;;5.32;;
39728;SDS011;25402;42.004;23.088;2023-01-24T08:40:30;8.77;;;5.30;;
39728;SDS011;25402;42.004;23.088;2023-01-24T08:42:58;8.40;;;5.07;;
39728;SDS011;25402;42.004;23.088;2023-01-24T08:45:26;13.00;;;5.40;;
39728;SDS011;25402;42.004;23.088;2023-01-24T08:47:52;9.93;;;6.63;;
39728;SDS011;25402;42.004;23.088;2023-01-24T08:50:19;11.60;;;8.07;;
39728;SDS011;25402;42.004;23.088;2023-01-24T08:52:53;14.35;;;8.18;;
39728;SDS011;25402;42.004;23.088;2023-01-24T08:55:19;12.18;;;5.05;;
39728;SDS011;25402;42.004;23.088;2023-01-24T08:57:46;8.95;;;4.65;;
39728;SDS011;25402;42.004;23.088;2023-01-24T09:00:13;9.73;;;4.80;;
39728;SDS011;25402;42.004;23.088;2023-01-24T09:02:40;7.57;;;4.57;;
39728;SDS011;25402;42.004;23.088;2023-01-24T09:05:07;12.90;;;5.50;;
39728;SDS011;25402;42.004;23.088;2023-01-24T09:07:35;13.00;;;6.07;;
39728;SDS011;25402;42.004;23.088;2023-01-24T09:10:03;10.02;;;6.07;;
39728;SDS011;25402;42.004;23.088;2023-01-24T09:12:30;10.27;;;5.95;;
39728;SDS011;25402;42.004;23.088;2023-01-24T09:14:57;11.68;;;5.55;;
39728;SDS011;25402;42.004;23.088;2023-01-24T09:17:24;9.65;;;5.97;;
39728;SDS011;25402;42.004;23.088;2023-01-24T09:19:51;9.10;;;5.75;;
39728;SDS011;25402;42.004;23.088;2023-01-24T09:22:17;8.95;;;5.68;;
39728;SDS011;25402;42.004;23.088;2023-01-24T09:24:44;11.40;;;5.75;;
39728;SDS011;25402;42.004;23.088;2023-01-24T09:27:12;10.30;;;6.22;;
39728;SDS011;25402;42.004;23.088;2023-01-24T09:29:38;12.57;;;6.00;;
39728;SDS011;25402;42.004;23.088;2023-01-24T09:32:05;9.68;;;5.28;;
39728;SDS011;25402;42.004;23.088;2023-01-24T09:34:32;9.57;;;5.45;;
39728;SDS011;25402;42.004;23.088;2023-01-24T09:36:58;6.55;;;4.20;;
39728;SDS011;25402;42.004;23.088;2023-01-24T09:39:25;7.32;;;4.40;;
39728;SDS011;25402;42.004;23.088;2023-01-24T09:41:55;5.78;;;4.40;;
39728;SDS011;25402;42.004;23.088;2023-01-24T09:44:27;8.10;;;4.28;;
39728;SDS011;25402;42.004;23.088;2023-01-24T09:46:56;10.87;;;5.10;;
39728;SDS011;25402;42.004;23.088;2023-01-24T09:49:28;7.88;;;4.90;;
39728;SDS011;25402;42.004;23.088;2023-01-24T09:51:57;8.98;;;5.03;;
39728;SDS011;25402;42.004;23.088;2023-01-24T09:54:27;10.27;;;5.43;;
39728;SDS011;25402;42.004;23.088;2023-01-24T09:56:56;9.38;;;5.40;;
39728;SDS011;25402;42.004;23.088;2023-01-24T09:59:23;11.30;;;5.00;;
39728;SDS011;25402;42.004;23.088;2023-01-24T10:01:54;8.73;;;5.10;;
39728;SDS011;25402;42.004;23.088;2023-01-24T10:04:21;7.28;;;4.85;;
39728;SDS011;25402;42.004;23.088;2023-01-24T10:09:31;9.85;;;5.30;;
39728;SDS011;25402;42.004;23.088;2023-01-24T10:12:00;8.98;;;5.90;;
39728;SDS011;25402;42.004;23.088;2023-01-24T10:14:34;22.52;;;12.23;;
39728;SDS011;25402;42.004;23.088;2023-01-24T10:17:14;7.95;;;5.18;;
39728;SDS011;25402;42.004;23.088;2023-01-24T10:19:51;16.45;;;8.80;;
39728;SDS011;25402;42.004;23.088;2023-01-24T10:22:24;10.68;;;6.25;;
39728;SDS011;25402;42.004;23.088;2023-01-24T10:24:59;14.10;;;8.30;;
39728;SDS011;25402;42.004;23.088;2023-01-24T10:27:27;14.80;;;8.40;;
39728;SDS011;25402;42.004;23.088;2023-01-24T10:29:55;11.10;;;5.78;;
39728;SDS011;25402;42.004;23.088;2023-01-24T10:32:29;8.77;;;5.43;;
39728;SDS011;25402;42.004;23.088;2023-01-24T10:34:56;12.90;;;6.97;;
39728;SDS011;25402;42.004;23.088;2023-01-24T10:37:25;19.38;;;11.48;;
39728;SDS011;25402;42.004;23.088;2023-01-24T10:39:52;22.33;;;12.35;;
39728;SDS011;25402;42.004;23.088;2023-01-24T10:42:21;12.88;;;8.07;;
39728;SDS011;25402;42.004;23.088;2023-01-24T10:44:48;10.93;;;6.38;;
39728;SDS011;25402;42.004;23.088;2023-01-24T10:47:38;13.65;;;7.05;;
39728;SDS011;25402;42.004;23.088;2023-01-24T10:50:06;11.05;;;6.40;;
39728;SDS011;25402;42.004;23.088;2023-01-24T10:52:33;9.13;;;5.72;;
39728;SDS011;25402;42.004;23.088;2023-01-24T10:55:01;9.45;;;5.43;;
39728;SDS011;25402;42.004;23.088;2023-01-24T10:57:30;9.43;;;5.82;;
39728;SDS011;25402;42.004;23.088;2023-01-24T11:00:15;8.38;;;5.45;;
39728;SDS011;25402;42.004;23.088;2023-01-24T11:02:45;10.40;;;6.55;;
39728;SDS011;25402;42.004;23.088;2023-01-24T11:05:12;9.25;;;5.78;;
39728;SDS011;25402;42.004;23.088;2023-01-24T11:07:43;9.40;;;6.28;;
39728;SDS011;25402;42.004;23.088;2023-01-24T11:10:17;9.80;;;6.00;;
39728;SDS011;25402;42.004;23.088;2023-01-24T11:12:47;7.90;;;5.45;;
39728;SDS011;25402;42.004;23.088;2023-01-24T11:15:15;8.80;;;5.45;;
39728;SDS011;25402;42.004;23.088;2023-01-24T11:17:42;6.18;;;4.80;;
39728;SDS011;25402;42.004;23.088;2023-01-24T11:20:16;8.57;;;4.50;;
39728;SDS011;25402;42.004;23.088;2023-01-24T11:22:49;9.45;;;5.38;;
39728;SDS011;25402;42.004;23.088;2023-01-24T11:25:16;10.65;;;5.80;;
39728;SDS011;25402;42.004;23.088;2023-01-24T11:27:46;7.50;;;4.85;;
39728;SDS011;25402;42.004;23.088;2023-01-24T11:30:16;7.78;;;4.78;;
39728;SDS011;25402;42.004;23.088;2023-01-24T11:32:46;7.40;;;5.32;;
39728;SDS011;25402;42.004;23.088;2023-01-24T11:35:15;9.27;;;4.47;;
39728;SDS011;25402;42.004;23.088;2023-01-24T11:37:51;6.35;;;4.07;;
39728;SDS011;25402;42.004;23.088;2023-01-24T11:40:28;7.43;;;4.10;;
39728;SDS011;25402;42.004;23.088;2023-01-24T11:43:03;6.78;;;3.58;;
39728;SDS011;25402;42.004;23.088;2023-01-24T11:45:38;6.95;;;3.80;;
39728;SDS011;25402;42.004;23.088;2023-01-24T11:48:08;6.75;;;3.90;;
39728;SDS011;25402;42.004;23.088;2023-01-24T11:50:41;8.30;;;4.05;;
39728;SDS011;25402;42.004;23.088;2023-01-24T11:53:30;6.18;;;3.70;;
39728;SDS011;25402;42.004;23.088;2023-01-24T11:56:02;6.85;;;3.63;;
39728;SDS011;25402;42.004;23.088;2023-01-24T11:58:40;6.53;;;4.03;;
39728;SDS011;25402;42.004;23.088;2023-01-24T12:01:09;6.03;;;3.67;;
39728;SDS011;25402;42.004;23.088;2023-01-24T12:03:45;12.90;;;4.60;;
39728;SDS011;25402;42.004;23.088;2023-01-24T12:06:19;6.35;;;3.85;;
39728;SDS011;25402;42.004;23.088;2023-01-24T12:08:55;7.43;;;3.95;;
39728;SDS011;25402;42.004;23.088;2023-01-24T12:11:25;5.90;;;3.90;;
39728;SDS011;25402;42.004;23.088;2023-01-24T12:13:56;7.78;;;4.25;;
39728;SDS011;25402;42.004;23.088;2023-01-24T12:16:30;6.38;;;4.32;;
39728;SDS011;25402;42.004;23.088;2023-01-24T12:19:14;7.60;;;5.13;;
39728;SDS011;25402;42.004;23.088;2023-01-24T12:21:48;7.03;;;4.60;;
39728;SDS011;25402;42.004;23.088;2023-01-24T12:24:17;10.57;;;5.70;;
39728;SDS011;25402;42.004;23.088;2023-01-24T12:26:45;11.27;;;4.82;;
39728;SDS011;25402;42.004;23.088;2023-01-24T12:29:14;10.18;;;3.95;;
39728;SDS011;25402;42.004;23.088;2023-01-24T12:31:42;6.45;;;4.10;;
39728;SDS011;25402;42.004;23.088;2023-01-24T12:34:14;4.28;;;3.38;;
39728;SDS011;25402;42.004;23.088;2023-01-24T12:36:51;5.50;;;3.35;;
39728;SDS011;25402;42.004;23.088;2023-01-24T12:39:20;5.25;;;3.40;;
39728;SDS011;25402;42.004;23.088;2023-01-24T12:41:49;5.88;;;3.20;;
39728;SDS011;25402;42.004;23.088;2023-01-24T12:44:25;6.55;;;3.28;;
39728;SDS011;25402;42.004;23.088;2023-01-24T12:47:01;4.57;;;2.95;;
39728;SDS011;25402;42.004;23.088;2023-01-24T12:49:33;5.70;;;3.35;;
39728;SDS011;25402;42.004;23.088;2023-01-24T12:52:03;4.40;;;2.95;;
39728;SDS011;25402;42.004;23.088;2023-01-24T12:54:36;4.75;;;2.95;;
39728;SDS011;25402;42.004;23.088;2023-01-24T12:57:08;5.40;;;2.88;;
39728;SDS011;25402;42.004;23.088;2023-01-24T12:59:37;4.93;;;3.40;;
39728;SDS011;25402;42.004;23.088;2023-01-24T13:02:11;8.70;;;3.42;;
39728;SDS011;25402;42.004;23.088;2023-01-24T13:04:47;13.70;;;7.85;;
39728;SDS011;25402;42.004;23.088;2023-01-24T13:07:18;10.25;;;6.28;;
39728;SDS011;25402;42.004;23.088;2023-01-24T13:09:51;5.25;;;3.15;;
39728;SDS011;25402;42.004;23.088;2023-01-24T13:12:21;5.95;;;3.25;;
39728;SDS011;25402;42.004;23.088;2023-01-24T13:14:49;8.55;;;4.72;;
39728;SDS011;25402;42.004;23.088;2023-01-24T13:17:20;5.00;;;3.40;;
39728;SDS011;25402;42.004;23.088;2023-01-24T13:19:53;7.00;;;3.60;;
39728;SDS011;25402;42.004;23.088;2023-01-24T13:22:30;4.93;;;3.43;;
39728;SDS011;25402;42.004;23.088;2023-01-24T13:25:00;5.15;;;3.75;;
39728;SDS011;25402;42.004;23.088;2023-01-24T13:30:00;8.65;;;3.28;;
39728;SDS011;25402;42.004;23.088;2023-01-24T13:32:29;7.32;;;3.97;;
39728;SDS011;25402;42.004;23.088;2023-01-24T13:34:57;5.80;;;3.05;;
39728;SDS011;25402;42.004;23.088;2023-01-24T13:37:25;3.80;;;3.03;;
39728;SDS011;25402;42.004;23.088;2023-01-24T13:40:01;7.68;;;3.70;;
39728;SDS011;25402;42.004;23.088;2023-01-24T13:42:32;5.72;;;3.55;;
39728;SDS011;25402;42.004;23.088;2023-01-24T13:44:59;5.78;;;4.07;;
39728;SDS011;25402;42.004;23.088;2023-01-24T13:47:45;10.13;;;4.15;;
39728;SDS011;25402;42.004;23.088;2023-01-24T13:50:16;8.05;;;3.72;;
39728;SDS011;25402;42.004;23.088;2023-01-24T13:52:52;8.57;;;3.97;;
39728;SDS011;25402;42.004;23.088;2023-01-24T13:55:59;6.88;;;4.20;;
39728;SDS011;25402;42.004;23.088;2023-01-24T13:58:30;10.35;;;4.65;;
39728;SDS011;25402;42.004;23.088;2023-01-24T14:00:57;6.45;;;4.50;;
39728;SDS011;25402;42.004;23.088;2023-01-24T14:03:27;5.90;;;3.97;;
39728;SDS011;25402;42.004;23.088;2023-01-24T14:05:56;14.05;;;4.15;;
39728;SDS011;25402;42.004;23.088;2023-01-24T14:08:33;8.57;;;4.00;;
39728;SDS011;25402;42.004;23.088;2023-01-24T14:11:18;11.77;;;4.47;;
39728;SDS011;25402;42.004;23.088;2023-01-24T14:13:53;8.35;;;4.90;;
39728;SDS011;25402;42.004;23.088;2023-01-24T14:19:04;8.75;;;4.50;;
39728;SDS011;25402;42.004;23.088;2023-01-24T14:21:45;11.15;;;4.95;;
39728;SDS011;25402;42.004;23.088;2023-01-24T14:24:19;10.27;;;5.15;;
39728;SDS011;25402;42.004;23.088;2023-01-24T14:26:51;10.15;;;4.72;;
39728;SDS011;25402;42.004;23.088;2023-01-24T14:29:18;8.68;;;4.78;;
39728;SDS011;25402;42.004;23.088;2023-01-24T14:31:45;10.25;;;5.30;;
39728;SDS011;25402;42.004;23.088;2023-01-24T14:34:15;10.75;;;4.68;;
39728;SDS011;25402;42.004;23.088;2023-01-24T14:36:43;12.32;;;4.90;;
39728;SDS011;25402;42.004;23.088;2023-01-24T14:39:19;8.35;;;4.70;;
39728;SDS011;25402;42.004;23.088;2023-01-24T14:41:46;6.57;;;3.75;;
39728;SDS011;25402;42.004;23.088;2023-01-24T14:44:18;6.07;;;3.42;;
39728;SDS011;25402;42.004;23.088;2023-01-24T14:46:55;7.28;;;3.90;;
39728;SDS011;25402;42.004;23.088;2023-01-24T14:49:26;10.20;;;4.50;;
39728;SDS011;25402;42.004;23.088;2023-01-24T14:51:55;9.23;;;4.28;;
39728;SDS011;25402;42.004;23.088;2023-01-24T14:54:22;7.95;;;4.55;;